createdAt,value
2019-02-26T00:00:21.809Z,2.69
2019-02-26T00:01:21.034Z,2.68
2019-02-26T00:02:21.453Z,2.50
2019-02-26T00:03:22.012Z,2.50
2019-02-26T00:04:21.046Z,2.68
2019-02-26T00:05:21.573Z,2.47
2019-02-26T00:06:20.740Z,2.62
2019-02-26T00:07:23.374Z,2.62
2019-02-26T00:08:21.843Z,2.62
2019-02-26T00:09:22.379Z,2.71
2019-02-26T00:10:19.773Z,2.79
2019-02-26T00:11:19.414Z,2.80
2019-02-26T00:12:21.901Z,2.61
2019-02-26T00:13:19.422Z,2.62
2019-02-26T00:14:20.332Z,2.76
2019-02-26T00:15:19.389Z,2.71
2019-02-26T00:16:20.563Z,2.81
2019-02-26T00:17:20.208Z,2.80
2019-02-26T00:18:21.345Z,2.99
2019-02-26T00:19:19.371Z,2.83
2019-02-26T00:20:19.310Z,2.90
2019-02-26T00:21:20.431Z,3.02
2019-02-26T00:22:19.290Z,2.98
2019-02-26T00:23:21.091Z,2.79
2019-02-26T00:24:19.298Z,2.65
2019-02-26T00:25:20.472Z,2.74
2019-02-26T00:26:20.667Z,2.79
2019-02-26T00:27:19.254Z,2.87
2019-02-26T00:28:19.751Z,2.89
2019-02-26T00:29:21.022Z,2.98
2019-02-26T00:30:19.209Z,3.12
2019-02-26T00:31:21.429Z,2.99
2019-02-26T00:32:19.187Z,3.02
2019-02-26T00:33:22.379Z,2.99
2019-02-26T00:34:20.169Z,3.12
2019-02-26T00:35:21.217Z,2.95
2019-02-26T00:36:19.137Z,2.89
2019-02-26T00:37:19.985Z,2.77
2019-02-26T00:38:19.869Z,2.79
2019-02-26T00:39:20.614Z,2.68
2019-02-26T00:40:20.176Z,2.66
2019-02-26T00:41:20.746Z,2.77
2019-02-26T00:42:21.534Z,2.62
2019-02-26T00:43:23.243Z,2.77
2019-02-26T00:44:21.207Z,2.80
2019-02-26T00:45:22.255Z,2.74
2019-02-26T00:46:19.038Z,2.81
2019-02-26T00:47:19.087Z,2.76
2019-02-26T00:48:19.010Z,2.90
2019-02-26T00:49:21.048Z,2.77
2019-02-26T00:50:18.985Z,2.47
2019-02-26T00:51:20.919Z,2.47
2019-02-26T00:52:18.970Z,2.74
2019-02-26T00:53:21.228Z,2.77
2019-02-26T00:54:22.183Z,2.65
2019-02-26T00:55:23.146Z,2.62
2019-02-26T00:56:19.946Z,2.61
2019-02-26T00:57:18.919Z,2.59
2019-02-26T00:58:18.900Z,2.55
2019-02-26T00:59:18.929Z,2.81
2019-02-26T01:00:18.880Z,2.84
2019-02-26T01:01:19.947Z,2.86
2019-02-26T01:02:18.860Z,2.74
2019-02-26T01:03:18.860Z,2.62
2019-02-26T01:04:18.852Z,2.58
2019-02-26T01:05:18.866Z,2.50
2019-02-26T01:06:18.832Z,2.50
2019-02-26T01:07:19.547Z,2.59
2019-02-26T01:08:19.878Z,2.62
2019-02-26T01:09:18.798Z,2.62
2019-02-26T01:10:21.224Z,2.77
2019-02-26T01:11:19.477Z,2.84
2019-02-26T01:12:18.761Z,2.95
2019-02-26T01:13:20.292Z,2.86
2019-02-26T01:14:20.343Z,2.81
2019-02-26T01:15:18.727Z,2.59
2019-02-26T01:16:18.712Z,2.51
2019-02-26T01:17:18.938Z,2.43
2019-02-26T01:18:20.733Z,2.41
2019-02-26T01:19:19.838Z,2.26
2019-02-26T01:20:19.583Z,2.32
2019-02-26T01:21:22.162Z,2.40
2019-02-26T01:22:19.643Z,2.45
2019-02-26T01:23:21.383Z,2.61
2019-02-26T01:24:18.624Z,2.62
2019-02-26T01:25:21.051Z,2.73
2019-02-26T01:26:18.598Z,2.63
2019-02-26T01:27:18.593Z,2.59
2019-02-26T01:28:20.304Z,2.61
2019-02-26T01:29:20.724Z,2.48
2019-02-26T01:30:23.647Z,2.58
2019-02-26T01:31:20.717Z,2.55
2019-02-26T01:32:20.473Z,2.56
2019-02-26T01:33:18.536Z,2.51
2019-02-26T01:34:20.295Z,2.55
2019-02-26T01:35:18.533Z,2.59
2019-02-26T01:36:20.751Z,2.59
2019-02-26T01:37:18.495Z,2.51
2019-02-26T01:38:18.772Z,2.53
2019-02-26T01:39:19.254Z,2.55
2019-02-26T01:40:21.126Z,2.53
2019-02-26T01:41:20.353Z,2.50
2019-02-26T01:42:22.442Z,2.59
2019-02-26T01:43:19.434Z,2.61
2019-02-26T01:44:18.436Z,2.61
2019-02-26T01:45:19.645Z,2.48
2019-02-26T01:46:18.834Z,2.43
2019-02-26T01:47:19.676Z,2.38
2019-02-26T01:48:18.673Z,2.41
2019-02-26T01:49:19.309Z,2.43
2019-02-26T01:50:18.342Z,2.43
2019-02-26T01:51:19.383Z,2.51
2019-02-26T01:52:18.321Z,2.47
2019-02-26T01:53:19.775Z,2.53
2019-02-26T01:54:18.358Z,2.45
2019-02-26T01:55:20.577Z,2.51
2019-02-26T01:56:19.949Z,2.43
2019-02-26T01:57:18.291Z,2.44
2019-02-26T01:58:18.300Z,2.43
2019-02-26T01:59:18.984Z,2.50
2019-02-26T02:00:18.234Z,2.48
2019-02-26T02:01:19.205Z,2.58
2019-02-26T02:02:20.330Z,2.56
2019-02-26T02:03:20.815Z,2.47
2019-02-26T02:04:19.589Z,2.65
2019-02-26T02:05:19.646Z,2.65
2019-02-26T02:06:18.407Z,2.62
2019-02-26T02:07:18.944Z,2.61
2019-02-26T02:08:20.247Z,2.45
2019-02-26T02:09:20.156Z,2.56
2019-02-26T02:10:18.183Z,2.53
2019-02-26T02:11:18.118Z,2.61
2019-02-26T02:12:18.113Z,2.53
2019-02-26T02:13:18.095Z,2.55
2019-02-26T02:14:18.124Z,2.41
2019-02-26T02:15:20.944Z,2.41
2019-02-26T02:16:19.104Z,2.50
2019-02-26T02:17:18.053Z,2.50
2019-02-26T02:18:20.140Z,2.63
2019-02-26T02:19:20.236Z,2.59
2019-02-26T02:20:21.328Z,2.47
2019-02-26T02:21:18.021Z,2.51
2019-02-26T02:22:19.079Z,2.53
2019-02-26T02:23:19.409Z,2.51
2019-02-26T02:24:19.967Z,2.50
2019-02-26T02:25:17.989Z,2.61
2019-02-26T02:26:17.958Z,2.63
2019-02-26T02:27:20.287Z,2.59
2019-02-26T02:28:19.616Z,2.74
2019-02-26T02:29:19.151Z,2.66
2019-02-26T02:30:23.300Z,2.65
2019-02-26T02:31:18.913Z,2.50
2019-02-26T02:32:17.891Z,2.63
2019-02-26T02:33:23.559Z,2.51
2019-02-26T02:34:18.949Z,2.58
2019-02-26T02:35:19.123Z,2.48
2019-02-26T02:36:20.615Z,2.55
2019-02-26T02:37:24.108Z,2.51
2019-02-26T02:38:20.503Z,2.66
2019-02-26T02:39:18.823Z,2.83
2019-02-26T02:40:17.864Z,2.81
2019-02-26T02:41:17.802Z,2.84
2019-02-26T02:42:19.159Z,2.80
2019-02-26T02:43:20.384Z,2.79
2019-02-26T02:44:20.263Z,2.62
2019-02-26T02:45:20.736Z,2.61
2019-02-26T02:46:17.781Z,2.71
2019-02-26T02:47:17.735Z,2.71
2019-02-26T02:48:17.761Z,2.76
2019-02-26T02:49:18.025Z,2.73
2019-02-26T02:50:18.558Z,2.83
2019-02-26T02:51:17.692Z,3.02
2019-02-26T02:52:17.674Z,2.77
2019-02-26T02:53:20.800Z,2.79
2019-02-26T02:54:18.594Z,2.61
2019-02-26T02:55:19.284Z,2.65
2019-02-26T02:56:17.939Z,2.74
2019-02-26T02:57:17.636Z,2.87
2019-02-26T02:58:20.144Z,2.98
2019-02-26T02:59:17.602Z,2.90
2019-02-26T03:00:17.638Z,2.86
2019-02-26T03:01:20.405Z,2.99
2019-02-26T03:02:19.985Z,2.87
2019-02-26T03:03:17.580Z,2.79
2019-02-26T03:04:19.844Z,2.74
2019-02-26T03:05:17.540Z,2.56
2019-02-26T03:06:17.571Z,2.56
2019-02-26T03:07:18.659Z,2.61
2019-02-26T03:08:19.377Z,2.74
2019-02-26T03:09:19.621Z,2.65
2019-02-26T03:10:17.481Z,2.66
2019-02-26T03:11:17.494Z,2.77
2019-02-26T03:12:17.499Z,2.81
2019-02-26T03:13:20.240Z,2.87
2019-02-26T03:14:18.747Z,2.83
2019-02-26T03:15:17.437Z,2.77
2019-02-26T03:16:19.475Z,2.87
2019-02-26T03:17:20.144Z,2.80
2019-02-26T03:18:17.418Z,2.71
2019-02-26T03:19:17.409Z,2.61
2019-02-26T03:20:17.390Z,2.74
2019-02-26T03:21:19.486Z,2.81
2019-02-26T03:22:18.836Z,2.69
2019-02-26T03:23:20.057Z,2.74
2019-02-26T03:24:17.347Z,2.59
2019-02-26T03:25:20.856Z,2.58
2019-02-26T03:26:20.348Z,2.63
2019-02-26T03:27:17.311Z,2.73
2019-02-26T03:28:17.331Z,2.84
2019-02-26T03:29:17.289Z,2.83
2019-02-26T03:30:26.302Z,2.77
2019-02-26T03:31:18.282Z,2.87
2019-02-26T03:32:17.261Z,2.89
2019-02-26T03:33:17.246Z,2.94
2019-02-26T03:34:21.765Z,3.01
2019-02-26T03:35:19.601Z,3.07
2019-02-26T03:36:19.076Z,3.15
2019-02-26T03:37:17.237Z,2.86
2019-02-26T03:38:17.978Z,3.01
2019-02-26T03:39:17.177Z,3.25
2019-02-26T03:40:17.210Z,3.19
2019-02-26T03:41:20.389Z,2.99
2019-02-26T03:42:20.695Z,3.08
2019-02-26T03:43:17.152Z,2.89
2019-02-26T03:44:17.126Z,2.69
2019-02-26T03:45:23.771Z,2.65
2019-02-26T03:46:18.136Z,2.66
2019-02-26T03:47:18.718Z,2.48
2019-02-26T03:48:20.317Z,2.43
2019-02-26T03:49:17.078Z,2.63
2019-02-26T03:50:17.078Z,2.48
2019-02-26T03:51:17.929Z,2.51
2019-02-26T03:52:17.079Z,2.62
2019-02-26T03:53:17.038Z,2.63
2019-02-26T03:54:17.024Z,2.50
2019-02-26T03:55:18.708Z,2.62
2019-02-26T03:56:18.287Z,2.62
2019-02-26T03:57:19.376Z,2.56
2019-02-26T03:58:17.002Z,2.53
2019-02-26T03:59:16.969Z,2.43
2019-02-26T04:00:19.569Z,2.47
2019-02-26T04:01:19.415Z,2.26
2019-02-26T04:02:18.106Z,2.25
2019-02-26T04:03:17.617Z,2.19
2019-02-26T04:04:16.942Z,2.47
2019-02-26T04:05:16.932Z,2.41
2019-02-26T04:06:16.882Z,2.40
2019-02-26T04:07:16.872Z,2.47
2019-02-26T04:08:19.102Z,2.44
2019-02-26T04:09:18.976Z,2.44
2019-02-26T04:10:16.866Z,2.58
2019-02-26T04:11:19.517Z,2.62
2019-02-26T04:12:18.581Z,2.45
2019-02-26T04:13:16.809Z,2.41
2019-02-26T04:14:18.056Z,2.38
2019-02-26T04:15:16.788Z,2.44
2019-02-26T04:16:16.809Z,2.44
2019-02-26T04:17:16.803Z,2.45
2019-02-26T04:18:16.750Z,2.47
2019-02-26T04:19:16.742Z,2.59
2019-02-26T04:20:16.740Z,2.51
2019-02-26T04:21:18.421Z,2.48
2019-02-26T04:22:18.770Z,2.43
2019-02-26T04:23:19.227Z,2.44
2019-02-26T04:24:16.687Z,2.47
2019-02-26T04:25:16.681Z,2.47
2019-02-26T04:26:20.887Z,2.41
2019-02-26T04:27:16.664Z,2.50
2019-02-26T04:28:16.715Z,2.45
2019-02-26T04:29:16.638Z,2.48
2019-02-26T04:30:18.944Z,2.63
2019-02-26T04:31:16.613Z,2.50
2019-02-26T04:32:18.406Z,2.71
2019-02-26T04:33:16.598Z,2.62
2019-02-26T04:34:16.637Z,2.62
2019-02-26T04:35:16.580Z,2.66
2019-02-26T04:36:17.477Z,2.56
2019-02-26T04:37:16.568Z,2.65
2019-02-26T04:38:18.230Z,2.59
2019-02-26T04:39:19.095Z,2.58
2019-02-26T04:40:17.542Z,2.51
2019-02-26T04:41:16.510Z,2.65
2019-02-26T04:42:19.725Z,2.65
2019-02-26T04:43:16.495Z,2.59
2019-02-26T04:44:19.188Z,2.74
2019-02-26T04:45:16.504Z,2.66
2019-02-26T04:46:16.457Z,2.56
2019-02-26T04:47:18.460Z,2.58
2019-02-26T04:48:19.305Z,2.48
2019-02-26T04:49:16.421Z,2.51
2019-02-26T04:50:16.459Z,2.63
2019-02-26T04:51:16.445Z,2.66
2019-02-26T04:52:17.391Z,2.63
2019-02-26T04:53:16.386Z,2.63
2019-02-26T04:54:21.042Z,2.63
2019-02-26T04:55:17.375Z,2.77
2019-02-26T04:56:16.351Z,2.81
2019-02-26T04:57:16.394Z,2.81
2019-02-26T04:58:18.400Z,2.74
2019-02-26T04:59:16.952Z,2.58
2019-02-26T05:00:16.323Z,2.61
2019-02-26T05:01:28.561Z,2.44
2019-02-26T05:02:17.330Z,2.56
2019-02-26T05:03:18.104Z,2.62
2019-02-26T05:04:16.258Z,2.61
2019-02-26T05:05:16.261Z,2.63
2019-02-26T05:06:16.237Z,2.71
2019-02-26T05:07:19.211Z,2.61
2019-02-26T05:08:17.753Z,2.55
2019-02-26T05:09:16.256Z,2.61
2019-02-26T05:10:16.204Z,2.65
2019-02-26T05:11:30.940Z,2.58
2019-02-26T05:12:17.175Z,2.62
2019-02-26T05:13:16.169Z,2.58
2019-02-26T05:14:20.984Z,2.65
2019-02-26T05:15:20.214Z,2.66
2019-02-26T05:16:16.152Z,2.80
2019-02-26T05:17:16.116Z,2.77
2019-02-26T05:18:17.829Z,2.63
2019-02-26T05:19:17.030Z,2.44
2019-02-26T05:20:18.834Z,2.36
2019-02-26T05:21:16.116Z,2.36
2019-02-26T05:22:16.081Z,2.36
2019-02-26T05:23:16.057Z,2.40
2019-02-26T05:24:18.083Z,2.43
2019-02-26T05:25:19.175Z,2.44
2019-02-26T05:26:18.043Z,2.56
2019-02-26T05:27:18.692Z,2.55
2019-02-26T05:28:17.666Z,2.48
2019-02-26T05:29:16.019Z,2.56
2019-02-26T05:30:18.931Z,2.48
2019-02-26T05:31:17.477Z,2.73
2019-02-26T05:32:15.973Z,2.81
2019-02-26T05:33:15.965Z,2.83
2019-02-26T05:34:18.102Z,2.84
2019-02-26T05:35:18.075Z,2.83
2019-02-26T05:36:17.234Z,2.97
2019-02-26T05:37:15.946Z,3.07
2019-02-26T05:38:15.908Z,3.17
2019-02-26T05:39:20.351Z,3.05
2019-02-26T05:40:21.504Z,3.04
2019-02-26T05:41:16.878Z,3.07
2019-02-26T05:42:15.872Z,3.04
2019-02-26T05:43:16.520Z,2.89
2019-02-26T05:44:15.869Z,2.90
2019-02-26T05:45:15.816Z,2.84
2019-02-26T05:46:18.856Z,2.77
2019-02-26T05:47:18.577Z,2.71
2019-02-26T05:48:20.102Z,2.62
2019-02-26T05:49:18.761Z,2.61
2019-02-26T05:50:16.797Z,2.66
2019-02-26T05:51:15.750Z,2.59
2019-02-26T05:52:15.766Z,2.84
2019-02-26T05:53:15.735Z,3.15
2019-02-26T05:54:18.533Z,3.08
2019-02-26T05:55:19.714Z,3.07
2019-02-26T05:56:17.141Z,3.05
2019-02-26T05:57:26.245Z,3.15
2019-02-26T05:58:19.327Z,3.19
2019-02-26T05:59:17.822Z,3.13
2019-02-26T06:00:18.159Z,3.28
2019-02-26T06:01:19.254Z,3.33
2019-02-26T06:02:18.785Z,3.41
2019-02-26T06:03:18.535Z,3.49
2019-02-26T06:04:19.549Z,3.44
2019-02-26T06:05:18.423Z,3.19
2019-02-26T06:06:15.589Z,3.15
2019-02-26T06:07:19.271Z,3.12
2019-02-26T06:08:16.573Z,3.22
2019-02-26T06:09:15.566Z,3.19
2019-02-26T06:10:15.552Z,2.89
2019-02-26T06:11:17.083Z,2.69
2019-02-26T06:12:15.531Z,2.80
2019-02-26T06:13:15.791Z,2.73
2019-02-26T06:14:15.525Z,2.69
2019-02-26T06:15:15.560Z,2.83
2019-02-26T06:16:15.491Z,2.94
2019-02-26T06:17:17.945Z,3.08
2019-02-26T06:18:15.467Z,3.13
2019-02-26T06:19:17.763Z,3.17
2019-02-26T06:20:15.449Z,3.17
2019-02-26T06:21:16.687Z,3.02
2019-02-26T06:22:20.141Z,2.89
2019-02-26T06:23:16.419Z,2.79
2019-02-26T06:24:15.429Z,2.69
2019-02-26T06:25:23.037Z,2.53
2019-02-26T06:26:17.823Z,2.58
2019-02-26T06:27:16.580Z,2.48
2019-02-26T06:28:17.514Z,2.73
2019-02-26T06:29:15.348Z,2.87
2019-02-26T06:30:15.342Z,3.02
2019-02-26T06:31:17.415Z,3.12
2019-02-26T06:32:15.327Z,3.01
2019-02-26T06:33:16.390Z,2.90
2019-02-26T06:34:16.717Z,2.87
2019-02-26T06:35:19.012Z,2.87
2019-02-26T06:36:15.270Z,2.89
2019-02-26T06:37:16.384Z,2.86
2019-02-26T06:38:15.266Z,2.89
2019-02-26T06:39:15.293Z,2.98
2019-02-26T06:40:15.234Z,2.97
2019-02-26T06:41:15.221Z,3.01
2019-02-26T06:42:15.210Z,3.12
2019-02-26T06:43:15.198Z,3.19
2019-02-26T06:44:15.202Z,3.28
2019-02-26T06:45:16.507Z,3.31
2019-02-26T06:46:15.167Z,3.35
2019-02-26T06:47:15.165Z,3.49
2019-02-26T06:48:17.627Z,3.46
2019-02-26T06:49:16.942Z,3.67
2019-02-26T06:50:18.019Z,3.59
2019-02-26T06:51:15.167Z,3.82
2019-02-26T06:52:16.292Z,3.88
2019-02-26T06:53:16.646Z,3.96
2019-02-26T06:54:15.564Z,4.02
2019-02-26T06:55:15.085Z,4.02
2019-02-26T06:56:16.023Z,4.08
2019-02-26T06:57:15.099Z,3.95
2019-02-26T06:58:15.039Z,3.95
2019-02-26T06:59:15.029Z,4.00
2019-02-26T07:00:16.798Z,4.00
2019-02-26T07:01:16.594Z,3.95
2019-02-26T07:02:15.008Z,3.96
2019-02-26T07:03:15.061Z,4.08
2019-02-26T07:04:14.969Z,4.07
2019-02-26T07:05:14.962Z,4.14
2019-02-26T07:06:18.413Z,4.11
2019-02-26T07:07:15.941Z,4.16
2019-02-26T07:08:14.933Z,4.07
2019-02-26T07:09:16.374Z,4.06
2019-02-26T07:10:18.352Z,4.02
2019-02-26T07:11:14.909Z,3.98
2019-02-26T07:12:16.878Z,4.10
2019-02-26T07:13:14.876Z,4.29
2019-02-26T07:14:14.921Z,4.46
2019-02-26T07:15:14.856Z,4.59
2019-02-26T07:16:14.860Z,4.64
2019-02-26T07:17:14.831Z,4.57
2019-02-26T07:18:17.151Z,4.69
2019-02-26T07:19:16.619Z,4.80
2019-02-26T07:20:14.823Z,4.83
2019-02-26T07:21:14.793Z,4.74
2019-02-26T07:22:16.066Z,4.69
2019-02-26T07:23:15.554Z,4.80
2019-02-26T07:24:15.810Z,4.79
2019-02-26T07:25:16.680Z,5.02
2019-02-26T07:26:16.079Z,5.08
2019-02-26T07:27:14.752Z,5.05
2019-02-26T07:28:15.242Z,5.02
2019-02-26T07:29:17.554Z,5.01
2019-02-26T07:30:14.749Z,5.06
2019-02-26T07:31:14.691Z,5.09
2019-02-26T07:32:16.853Z,5.11
2019-02-26T07:33:15.124Z,5.08
2019-02-26T07:34:15.654Z,5.09
2019-02-26T07:35:16.780Z,5.11
2019-02-26T07:36:16.159Z,5.12
2019-02-26T07:37:15.801Z,5.09
2019-02-26T07:38:16.201Z,5.04
2019-02-26T07:39:15.429Z,5.14
2019-02-26T07:40:16.090Z,5.19
2019-02-26T07:41:14.570Z,5.17
2019-02-26T07:42:16.919Z,5.17
2019-02-26T07:43:15.438Z,5.11
2019-02-26T07:44:18.110Z,5.27
2019-02-26T07:45:15.573Z,5.20
2019-02-26T07:46:19.285Z,5.23
2019-02-26T07:47:14.566Z,5.44
2019-02-26T07:48:18.629Z,5.51
2019-02-26T07:49:15.485Z,5.52
2019-02-26T07:50:16.678Z,5.62
2019-02-26T07:51:14.470Z,5.73
2019-02-26T07:52:14.463Z,5.66
2019-02-26T07:53:17.185Z,5.74
2019-02-26T07:54:14.472Z,5.74
2019-02-26T07:55:17.224Z,5.65
2019-02-26T07:56:14.412Z,5.66
2019-02-26T07:57:15.744Z,5.60
2019-02-26T07:58:15.584Z,5.56
2019-02-26T07:59:14.997Z,5.62
2019-02-26T08:00:14.393Z,5.63
2019-02-26T08:01:14.375Z,5.67
2019-02-26T08:02:14.390Z,5.70
2019-02-26T08:03:14.374Z,5.78
2019-02-26T08:04:16.045Z,5.85
2019-02-26T08:05:16.182Z,5.80
2019-02-26T08:06:14.400Z,5.65
2019-02-26T08:07:14.346Z,5.67
2019-02-26T08:08:14.858Z,5.83
2019-02-26T08:09:16.498Z,5.75
2019-02-26T08:10:14.985Z,6.01
2019-02-26T08:11:14.892Z,6.14
2019-02-26T08:12:14.284Z,6.14
2019-02-26T08:13:14.237Z,6.25
2019-02-26T08:14:16.043Z,6.21
2019-02-26T08:15:15.440Z,6.21
2019-02-26T08:16:14.199Z,6.21
2019-02-26T08:17:14.220Z,6.40
2019-02-26T08:18:14.181Z,6.38
2019-02-26T08:19:14.175Z,6.55
2019-02-26T08:20:14.859Z,6.69
2019-02-26T08:21:14.153Z,7.15
2019-02-26T08:22:14.177Z,7.41
2019-02-26T08:23:14.743Z,7.47
2019-02-26T08:24:14.856Z,7.50
2019-02-26T08:25:14.107Z,7.77
2019-02-26T08:26:15.505Z,7.79
2019-02-26T08:27:14.079Z,7.71
2019-02-26T08:28:15.549Z,7.71
2019-02-26T08:29:14.060Z,7.63
2019-02-26T08:30:14.816Z,7.62
2019-02-26T08:31:17.509Z,7.57
2019-02-26T08:32:18.097Z,7.57
2019-02-26T08:33:14.015Z,7.48
2019-02-26T08:34:15.721Z,7.47
2019-02-26T08:35:18.153Z,7.41
2019-02-26T08:36:14.216Z,7.36
2019-02-26T08:37:13.969Z,7.21
2019-02-26T08:38:13.966Z,7.19
2019-02-26T08:39:15.643Z,7.24
2019-02-26T08:40:13.979Z,7.18
2019-02-26T08:41:13.935Z,7.14
2019-02-26T08:42:14.162Z,6.91
2019-02-26T08:43:13.901Z,6.83
2019-02-26T08:44:13.895Z,6.81
2019-02-26T08:45:15.156Z,6.94
2019-02-26T08:46:14.884Z,7.04
2019-02-26T08:47:14.604Z,7.16
2019-02-26T08:48:15.031Z,7.16
2019-02-26T08:49:15.579Z,7.21
2019-02-26T08:50:14.815Z,7.00
2019-02-26T08:51:16.409Z,6.81
2019-02-26T08:52:16.835Z,6.64
2019-02-26T08:53:13.832Z,6.65
2019-02-26T08:54:20.580Z,6.55
2019-02-26T08:55:16.166Z,6.54
2019-02-26T08:56:13.772Z,6.65
2019-02-26T08:57:13.777Z,6.58
2019-02-26T08:58:13.740Z,6.55
2019-02-26T08:59:15.496Z,6.46
2019-02-26T09:00:13.724Z,6.50
2019-02-26T09:01:26.006Z,6.43
2019-02-26T09:02:14.756Z,6.40
2019-02-26T09:03:15.507Z,6.51
2019-02-26T09:04:14.517Z,6.68
2019-02-26T09:05:13.680Z,6.72
2019-02-26T09:06:16.093Z,6.91
2019-02-26T09:07:14.084Z,7.16
2019-02-26T09:08:15.833Z,7.16
2019-02-26T09:09:13.626Z,7.08
2019-02-26T09:10:15.844Z,7.09
2019-02-26T09:11:14.227Z,7.45
2019-02-26T09:12:15.279Z,7.42
2019-02-26T09:13:14.689Z,7.37
2019-02-26T09:14:14.245Z,7.57
2019-02-26T09:15:15.738Z,7.73
2019-02-26T09:16:13.566Z,7.73
2019-02-26T09:17:13.577Z,7.71
2019-02-26T09:18:13.539Z,7.71
2019-02-26T09:19:13.514Z,7.67
2019-02-26T09:20:14.661Z,7.71
2019-02-26T09:21:15.279Z,7.71
2019-02-26T09:22:14.982Z,8.00
2019-02-26T09:23:16.322Z,8.52
2019-02-26T09:24:13.458Z,8.63
2019-02-26T09:25:13.445Z,8.68
2019-02-26T09:26:13.437Z,8.57
2019-02-26T09:27:13.471Z,8.39
2019-02-26T09:28:13.455Z,8.27
2019-02-26T09:29:15.489Z,8.63
2019-02-26T09:30:14.015Z,8.97
2019-02-26T09:31:14.170Z,9.06
2019-02-26T09:32:14.433Z,9.24
2019-02-26T09:33:13.363Z,9.08
2019-02-26T09:34:13.394Z,8.79
2019-02-26T09:35:13.339Z,8.76
2019-02-26T09:36:15.747Z,8.75
2019-02-26T09:37:13.328Z,8.88
2019-02-26T09:38:15.058Z,9.48
2019-02-26T09:39:15.356Z,9.81
2019-02-26T09:40:13.332Z,10.44
2019-02-26T09:41:14.205Z,11.27
2019-02-26T09:42:13.278Z,11.90
2019-02-26T09:43:15.449Z,11.75
2019-02-26T09:44:13.255Z,11.67
2019-02-26T09:45:13.281Z,12.36
2019-02-26T09:46:16.207Z,12.91
2019-02-26T09:47:13.211Z,12.89
2019-02-26T09:48:15.237Z,12.13
2019-02-26T09:49:13.186Z,11.88
2019-02-26T09:50:15.156Z,11.67
2019-02-26T09:51:14.726Z,12.19
2019-02-26T09:52:13.149Z,12.61
2019-02-26T09:53:13.168Z,12.87
2019-02-26T09:54:15.108Z,12.80
2019-02-26T09:55:13.148Z,11.98
2019-02-26T09:56:13.112Z,11.75
2019-02-26T09:57:15.560Z,11.48
2019-02-26T09:58:13.530Z,11.31
2019-02-26T09:59:14.770Z,11.09
2019-02-26T10:00:14.658Z,11.12
2019-02-26T10:01:13.996Z,10.72
2019-02-26T10:02:13.043Z,10.76
2019-02-26T10:03:15.035Z,10.94
2019-02-26T10:04:13.019Z,11.45
2019-02-26T10:05:14.077Z,12.08
2019-02-26T10:06:14.128Z,12.04
2019-02-26T10:07:14.385Z,12.37
2019-02-26T10:08:12.990Z,12.74
2019-02-26T10:09:15.649Z,12.84
2019-02-26T10:10:14.134Z,12.11
2019-02-26T10:11:12.955Z,12.36
2019-02-26T10:12:15.657Z,11.96
2019-02-26T10:13:12.924Z,12.41
2019-02-26T10:14:15.021Z,12.48
2019-02-26T10:15:12.944Z,12.66
2019-02-26T10:16:12.894Z,13.14
2019-02-26T10:17:14.126Z,13.55
2019-02-26T10:18:12.874Z,13.90
2019-02-26T10:19:14.812Z,13.93
2019-02-26T10:20:12.862Z,13.88
2019-02-26T10:21:14.892Z,13.57
2019-02-26T10:22:13.768Z,13.17
2019-02-26T10:23:12.818Z,13.27
2019-02-26T10:24:12.887Z,13.44
2019-02-26T10:25:12.802Z,13.31
2019-02-26T10:26:12.791Z,13.61
2019-02-26T10:27:14.571Z,13.96
2019-02-26T10:28:14.114Z,14.41
2019-02-26T10:29:12.795Z,14.52
2019-02-26T10:30:14.370Z,14.06
2019-02-26T10:31:12.761Z,13.93
2019-02-26T10:32:12.755Z,13.99
2019-02-26T10:33:12.719Z,14.21
2019-02-26T10:34:15.544Z,14.04
2019-02-26T10:35:15.841Z,14.59
2019-02-26T10:36:15.308Z,14.87
2019-02-26T10:37:12.708Z,14.78
2019-02-26T10:38:12.802Z,15.44
2019-02-26T10:39:12.643Z,16.08
2019-02-26T10:40:14.479Z,15.37
2019-02-26T10:41:12.643Z,15.05
2019-02-26T10:42:12.614Z,15.11
2019-02-26T10:43:12.645Z,15.18
2019-02-26T10:44:14.662Z,15.44
2019-02-26T10:45:12.612Z,14.95
2019-02-26T10:46:12.570Z,14.98
2019-02-26T10:47:12.561Z,15.12
2019-02-26T10:48:13.730Z,14.87
2019-02-26T10:49:12.964Z,14.64
2019-02-26T10:50:13.823Z,14.78
2019-02-26T10:51:12.523Z,14.98
2019-02-26T10:52:16.554Z,14.72
2019-02-26T10:53:15.760Z,14.67
2019-02-26T10:54:17.655Z,14.87
2019-02-26T10:55:17.217Z,14.86
2019-02-26T10:56:12.474Z,15.00
2019-02-26T10:57:14.538Z,14.98
2019-02-26T10:58:13.316Z,15.18
2019-02-26T10:59:14.909Z,15.67
2019-02-26T11:00:12.424Z,15.37
2019-02-26T11:01:12.450Z,14.67
2019-02-26T11:02:14.470Z,14.69
2019-02-26T11:03:14.848Z,14.24
2019-02-26T11:04:12.370Z,14.48
2019-02-26T11:05:14.287Z,14.79
2019-02-26T11:06:15.939Z,14.87
2019-02-26T11:07:14.201Z,14.83
2019-02-26T11:08:12.339Z,14.80
2019-02-26T11:09:15.568Z,14.78
2019-02-26T11:10:14.652Z,14.83
2019-02-26T11:11:13.039Z,15.35
2019-02-26T11:12:12.299Z,15.64
2019-02-26T11:13:13.069Z,15.80
2019-02-26T11:14:14.236Z,15.59
2019-02-26T11:15:12.269Z,15.56
2019-02-26T11:16:17.429Z,15.56
2019-02-26T11:17:15.835Z,15.53
2019-02-26T11:18:14.858Z,15.80
2019-02-26T11:19:12.887Z,15.76
2019-02-26T11:20:12.209Z,15.68
2019-02-26T11:21:12.208Z,15.28
2019-02-26T11:22:12.226Z,15.04
2019-02-26T11:23:14.238Z,15.53
2019-02-26T11:24:12.151Z,16.29
2019-02-26T11:25:13.361Z,16.57
2019-02-26T11:26:13.161Z,16.62
2019-02-26T11:27:12.152Z,16.73
2019-02-26T11:28:13.056Z,16.22
2019-02-26T11:29:12.118Z,16.01
2019-02-26T11:30:12.108Z,15.92
2019-02-26T11:31:14.110Z,15.98
2019-02-26T11:32:13.479Z,15.85
2019-02-26T11:33:13.640Z,15.62
2019-02-26T11:34:13.333Z,15.85
2019-02-26T11:35:14.378Z,15.76
2019-02-26T11:36:13.110Z,15.62
2019-02-26T11:37:13.092Z,15.84
2019-02-26T11:38:14.325Z,15.31
2019-02-26T11:39:12.200Z,15.22
2019-02-26T11:40:11.987Z,15.11
2019-02-26T11:41:11.984Z,14.97
2019-02-26T11:42:11.967Z,14.90
2019-02-26T11:43:14.508Z,14.93
2019-02-26T11:44:12.717Z,15.19
2019-02-26T11:45:14.262Z,15.07
2019-02-26T11:46:11.934Z,15.04
2019-02-26T11:47:13.700Z,15.09
2019-02-26T11:48:11.899Z,14.91
2019-02-26T11:49:14.352Z,15.00
2019-02-26T11:50:21.050Z,14.85
2019-02-26T11:51:12.115Z,14.83
2019-02-26T11:52:11.865Z,14.69
2019-02-26T11:53:11.844Z,14.64
2019-02-26T11:54:14.449Z,14.71
2019-02-26T11:55:11.873Z,14.35
2019-02-26T11:56:13.101Z,14.34
2019-02-26T11:57:13.506Z,14.72
2019-02-26T11:58:15.434Z,14.94
2019-02-26T11:59:14.295Z,15.20
2019-02-26T12:00:13.840Z,15.56
2019-02-26T12:01:13.128Z,15.62
2019-02-26T12:02:11.975Z,15.74
2019-02-26T12:03:11.965Z,15.95
2019-02-26T12:04:14.290Z,15.73
2019-02-26T12:05:12.885Z,15.74
2019-02-26T12:06:11.849Z,15.81
2019-02-26T12:07:22.227Z,15.76
2019-02-26T12:08:14.329Z,15.85
2019-02-26T12:09:14.200Z,15.81
2019-02-26T12:10:14.216Z,15.99
2019-02-26T12:12:12.637Z,15.58
2019-02-26T12:13:11.690Z,15.66
2019-02-26T12:14:13.758Z,15.60
2019-02-26T12:15:12.341Z,15.89
2019-02-26T12:16:11.595Z,15.98
2019-02-26T12:17:12.910Z,16.50
2019-02-26T12:19:31.186Z,16.37
2019-02-26T12:20:29.492Z,16.62
2019-02-26T12:21:30.350Z,16.47
2019-02-26T12:22:29.943Z,15.84
2019-02-26T12:23:29.476Z,15.70
2019-02-26T12:24:31.381Z,15.64
2019-02-26T12:25:29.462Z,15.71
2019-02-26T12:26:30.215Z,15.80
2019-02-26T12:27:29.389Z,16.27
2019-02-26T12:28:34.174Z,16.41
2019-02-26T12:29:29.357Z,16.50
2019-02-26T12:30:29.370Z,16.57
2019-02-26T12:31:31.892Z,16.37
2019-02-26T12:32:29.646Z,15.96
2019-02-26T12:33:32.308Z,15.80
2019-02-26T12:34:29.313Z,15.88
2019-02-26T12:35:30.356Z,15.84
2019-02-26T12:36:29.885Z,15.73
2019-02-26T12:37:30.350Z,15.60
2019-02-26T12:38:29.285Z,15.56
2019-02-26T12:39:31.382Z,15.56
2019-02-26T12:40:29.252Z,16.03
2019-02-26T12:41:29.242Z,16.08
2019-02-26T12:42:30.238Z,16.06
2019-02-26T12:43:30.198Z,16.03
2019-02-26T12:44:31.741Z,15.88
2019-02-26T12:45:31.040Z,16.03
2019-02-26T12:46:31.233Z,15.77
2019-02-26T12:47:29.168Z,15.62
2019-02-26T12:48:29.160Z,15.51
2019-02-26T12:49:29.559Z,15.77
2019-02-26T12:50:32.604Z,15.66
2019-02-26T12:51:31.779Z,15.73
2019-02-26T12:52:30.390Z,15.70
2019-02-26T12:53:29.243Z,15.71
2019-02-26T12:54:31.274Z,15.73
2019-02-26T12:56:33.907Z,15.86
2019-02-26T12:57:31.604Z,15.84
2019-02-26T12:58:29.101Z,15.81
2019-02-26T12:59:29.070Z,16.13
2019-02-26T13:00:29.050Z,15.85
2019-02-26T13:01:33.278Z,15.85
2019-02-26T13:02:29.995Z,15.76
2019-02-26T13:03:30.018Z,16.16
2019-02-26T13:04:29.014Z,16.30
2019-02-26T13:05:28.988Z,16.48
2019-02-26T13:06:29.007Z,16.59
2019-02-26T13:07:29.057Z,16.60
2019-02-26T13:08:28.966Z,16.54
2019-02-26T13:09:28.941Z,16.37
2019-02-26T13:10:29.004Z,15.89
2019-02-26T13:11:28.911Z,15.95
2019-02-26T13:12:32.008Z,15.93
2019-02-26T13:13:28.974Z,15.92
2019-02-26T13:14:28.935Z,15.85